Time;durP1;ratioP1;P1;durP2;ratioP2;P2;SDS_P1;SDS_P2;PMS_P1;PMS_P2;Temp;Humidity;BMP_temperature;BMP_pressure;BME280_temperature;BME280_humidity;BME280_pressure;Samples;Min_cycle;Max_cycle;Signal;HPM_P1;HPM_P2
2022/06/21 00:01:14;;;;;;;13.30;5.43;;;12.40;99.90;;;;;;5053258;28;20020;-66
2022/06/21 00:03:41;;;;;;;14.65;5.28;;;12.40;99.90;;;;;;5052604;28;20021;-64
2022/06/21 00:06:06;;;;;;;20.52;5.53;;;12.30;99.90;;;;;;5052754;28;20052;-63
2022/06/21 00:08:34;;;;;;;11.95;5.20;;;12.30;99.90;;;;;;5052955;28;20344;-65
2022/06/21 00:11:01;;;;;;;16.05;5.40;;;12.30;99.90;;;;;;5052094;28;20081;-62
2022/06/21 00:13:34;;;;;;;12.73;4.70;;;12.30;99.90;;;;;;5052663;28;20032;-64
2022/06/21 00:16:03;;;;;;;13.88;4.88;;;12.30;99.90;;;;;;5052740;28;20032;-64
2022/06/21 00:18:31;;;;;;;13.98;5.82;;;12.20;99.90;;;;;;5052845;28;20028;-63
2022/06/21 00:20:57;;;;;;;13.80;5.45;;;12.20;99.90;;;;;;5052973;28;20029;-66
2022/06/21 00:23:28;;;;;;;17.20;5.72;;;12.20;99.90;;;;;;5052687;28;20171;-66
2022/06/21 00:25:54;;;;;;;16.52;5.82;;;12.10;99.90;;;;;;5052571;28;20158;-66
2022/06/21 00:28:21;;;;;;;19.20;6.55;;;12.10;99.90;;;;;;5052527;28;20132;-63
2022/06/21 00:30:48;;;;;;;17.13;5.60;;;12.10;99.90;;;;;;5052433;28;20036;-66
2022/06/21 00:33:16;;;;;;;17.00;6.80;;;12.10;99.90;;;;;;5052442;28;20060;-65
2022/06/21 00:35:44;;;;;;;12.68;5.88;;;12.00;99.90;;;;;;5052360;28;20017;-64
2022/06/21 00:38:18;;;;;;;12.63;4.93;;;12.00;99.90;;;;;;5052761;28;20160;-65
2022/06/21 00:40:44;;;;;;;15.40;5.53;;;12.00;99.90;;;;;;5052419;28;20568;-64
2022/06/21 00:43:15;;;;;;;16.70;6.47;;;12.00;99.90;;;;;;5052348;28;20116;-64
2022/06/21 00:45:45;;;;;;;11.98;5.47;;;12.00;99.90;;;;;;5052354;28;20025;-65
2022/06/21 00:48:25;;;;;;;11.75;5.22;;;11.90;99.90;;;;;;5052596;28;20037;-65
2022/06/21 00:51:01;;;;;;;13.95;5.13;;;11.90;99.90;;;;;;5052336;28;20029;-64
2022/06/21 00:53:43;;;;;;;12.48;5.30;;;11.90;99.90;;;;;;5052332;28;20025;-64
2022/06/21 00:56:14;;;;;;;16.63;6.18;;;11.90;99.90;;;;;;5052581;28;20075;-64
2022/06/21 00:58:40;;;;;;;18.33;8.20;;;11.90;99.90;;;;;;5052417;28;20025;-64
2022/06/21 01:01:20;;;;;;;17.02;6.32;;;12.00;99.90;;;;;;5052280;28;20035;-64
2022/06/21 01:03:52;;;;;;;18.42;6.75;;;12.00;99.90;;;;;;5052347;28;20086;-62
2022/06/21 01:06:23;;;;;;;11.05;4.82;;;11.90;99.90;;;;;;5052087;28;20029;-63
2022/06/21 01:08:54;;;;;;;13.40;4.97;;;11.90;99.90;;;;;;5052046;28;20028;-65
2022/06/21 01:11:25;;;;;;;13.60;5.30;;;11.90;99.90;;;;;;5051594;28;20103;-63
2022/06/21 01:13:55;;;;;;;15.57;6.32;;;11.80;99.90;;;;;;5051775;28;20044;-63
2022/06/21 01:16:23;;;;;;;13.43;5.45;;;11.80;99.90;;;;;;5050910;28;20057;-64
2022/06/21 01:18:49;;;;;;;17.10;5.95;;;11.80;99.90;;;;;;5052297;28;20060;-64
2022/06/21 01:21:16;;;;;;;14.93;5.78;;;11.80;99.90;;;;;;5052058;28;20021;-67
2022/06/21 01:24:03;;;;;;;13.50;5.70;;;11.80;99.90;;;;;;5054112;28;20017;-65
2022/06/21 01:26:57;;;;;;;16.67;5.60;;;11.70;99.90;;;;;;5054521;28;20107;-64
2022/06/21 01:29:30;;;;;;;13.38;5.80;;;11.70;99.90;;;;;;5053657;28;20040;-66
2022/06/21 01:31:59;;;;;;;15.30;6.65;;;11.70;99.90;;;;;;5055163;28;20052;-64
2022/06/21 01:34:27;;;;;;;14.45;6.63;;;11.70;99.90;;;;;;5055436;28;20124;-63
2022/06/21 01:37:04;;;;;;;16.25;6.20;;;11.70;99.90;;;;;;5055779;28;20103;-63
2022/06/21 01:39:39;;;;;;;15.35;5.97;;;11.70;99.90;;;;;;5055318;28;20033;-63
2022/06/21 01:42:32;;;;;;;13.32;6.40;;;11.60;99.90;;;;;;5055213;28;20021;-63
2022/06/21 01:45:05;;;;;;;14.70;5.85;;;11.60;99.90;;;;;;5049057;28;20474;-64
2022/06/21 01:47:39;;;;;;;15.15;6.25;;;11.60;99.90;;;;;;5055703;28;20036;-64
2022/06/21 01:50:08;;;;;;;16.85;6.90;;;11.60;99.90;;;;;;5055393;28;20021;-64
2022/06/21 01:52:38;;;;;;;16.00;6.68;;;11.50;99.90;;;;;;5054830;28;20049;-63
2022/06/21 01:55:21;;;;;;;18.75;6.80;;;11.50;99.90;;;;;;5054705;28;20103;-66
2022/06/21 01:57:49;;;;;;;20.95;8.57;;;11.50;99.90;;;;;;5055403;28;20100;-66
2022/06/21 02:00:15;;;;;;;21.92;8.00;;;11.40;99.90;;;;;;5055161;28;20029;-66
2022/06/21 02:02:44;;;;;;;20.27;8.02;;;11.40;99.90;;;;;;5054687;28;20415;-63
2022/06/21 02:05:25;;;;;;;16.50;6.43;;;11.30;99.90;;;;;;5055145;28;20017;-63
2022/06/21 02:07:56;;;;;;;15.60;6.45;;;11.30;99.90;;;;;;5054990;28;20055;-63
2022/06/21 02:10:47;;;;;;;13.43;6.10;;;11.30;99.90;;;;;;5053452;28;20437;-65
2022/06/21 02:13:33;;;;;;;19.23;7.82;;;11.20;99.90;;;;;;5054674;28;20044;-64
2022/06/21 02:16:07;;;;;;;20.52;7.57;;;11.30;99.90;;;;;;5054984;28;20028;-63
2022/06/21 02:18:39;;;;;;;14.70;6.13;;;11.20;99.90;;;;;;5055043;28;20017;-64
2022/06/21 02:21:24;;;;;;;18.25;7.20;;;11.20;99.90;;;;;;5054934;28;20048;-63
2022/06/21 02:23:53;;;;;;;19.95;7.97;;;11.20;99.90;;;;;;5054840;28;20111;-63
2022/06/21 02:26:21;;;;;;;12.38;6.28;;;11.10;99.90;;;;;;5054631;28;20481;-66
2022/06/21 02:28:47;;;;;;;19.58;7.05;;;11.10;99.90;;;;;;5054630;28;20135;-66
2022/06/21 02:31:13;;;;;;;21.27;7.40;;;11.10;99.90;;;;;;5054294;28;20115;-64
2022/06/21 02:33:41;;;;;;;17.63;7.20;;;11.10;99.90;;;;;;5054000;28;20070;-63
2022/06/21 02:36:14;;;;;;;17.85;7.47;;;11.00;99.90;;;;;;5054493;28;20073;-63
2022/06/21 02:38:54;;;;;;;19.48;7.28;;;11.00;99.90;;;;;;5052915;28;20066;-66
2022/06/21 02:41:39;;;;;;;20.38;8.18;;;11.10;99.90;;;;;;5054386;28;20100;-63
2022/06/21 02:44:22;;;;;;;19.30;7.05;;;11.00;99.90;;;;;;5053998;28;20032;-65
2022/06/21 02:46:52;;;;;;;20.17;7.40;;;11.00;99.90;;;;;;5033093;28;20067;-63
2022/06/21 02:49:23;;;;;;;21.50;8.63;;;11.00;99.90;;;;;;5033730;28;20017;-63
2022/06/21 02:51:58;;;;;;;15.15;7.20;;;11.00;99.90;;;;;;5035241;28;20036;-65
2022/06/21 02:54:27;;;;;;;14.15;6.90;;;11.00;99.90;;;;;;5053141;28;20124;-63
2022/06/21 02:57:15;;;;;;;14.63;6.18;;;11.00;99.90;;;;;;5053913;28;20025;-63
2022/06/21 02:59:42;;;;;;;13.48;5.60;;;11.00;99.90;;;;;;5052497;28;20454;-64
2022/06/21 03:02:16;;;;;;;13.57;6.03;;;11.00;99.90;;;;;;5049716;28;20465;-66
2022/06/21 03:04:51;;;;;;;18.25;6.68;;;11.00;99.90;;;;;;5053738;28;20027;-62
2022/06/21 03:07:36;;;;;;;16.75;5.70;;;11.00;99.90;;;;;;5076123;28;20018;-62
2022/06/21 03:10:02;;;;;;;13.90;5.80;;;11.00;99.90;;;;;;5052552;28;20017;-63
2022/06/21 03:12:31;;;;;;;15.13;6.13;;;11.00;99.90;;;;;;5050853;28;20173;-63
2022/06/21 03:15:09;;;;;;;14.77;6.65;;;11.00;99.90;;;;;;5053526;28;20472;-63
2022/06/21 03:18:02;;;;;;;13.80;6.43;;;11.10;99.90;;;;;;5051417;28;20469;-62
2022/06/21 03:20:32;;;;;;;18.40;6.68;;;11.00;99.90;;;;;;5049447;28;20020;-63
2022/06/21 03:22:58;;;;;;;14.20;5.68;;;11.00;99.90;;;;;;5053295;28;20017;-62
2022/06/21 03:25:28;;;;;;;14.38;6.25;;;11.00;99.90;;;;;;5053059;28;20029;-63
2022/06/21 03:27:58;;;;;;;19.20;7.55;;;11.00;99.90;;;;;;5053222;28;20090;-62
2022/06/21 03:30:36;;;;;;;14.27;5.78;;;11.00;99.90;;;;;;5052587;28;20423;-63
2022/06/21 03:33:03;;;;;;;12.57;5.97;;;11.00;99.90;;;;;;5052900;28;20033;-64
2022/06/21 03:35:33;;;;;;;19.92;6.93;;;11.00;99.90;;;;;;5050660;28;20020;-63
2022/06/21 03:37:59;;;;;;;17.58;6.97;;;11.00;99.90;;;;;;5053546;28;20024;-66
2022/06/21 03:43:19;;;;;;;24.60;8.02;;;11.00;99.90;;;;;;5052903;28;20032;-64
2022/06/21 03:45:48;;;;;;;12.90;6.47;;;11.10;99.90;;;;;;5052400;28;20040;-63
2022/06/21 03:48:20;;;;;;;13.70;6.85;;;11.10;99.90;;;;;;5052987;28;20013;-63
2022/06/21 03:51:00;;;;;;;16.70;6.95;;;11.10;99.90;;;;;;5052192;28;20021;-63
2022/06/21 03:53:28;;;;;;;15.20;7.28;;;11.20;99.90;;;;;;5053139;28;20067;-63
2022/06/21 03:56:16;;;;;;;20.45;8.70;;;11.20;99.90;;;;;;5053293;28;20090;-64
2022/06/21 03:58:54;;;;;;;15.38;6.53;;;11.20;99.90;;;;;;5053041;28;20048;-64
2022/06/21 04:01:55;;;;;;;9.85;5.43;;;11.30;99.90;;;;;;5053072;28;20013;-62
2022/06/21 04:04:39;;;;;;;15.93;6.55;;;11.30;99.90;;;;;;5052477;28;20021;-63
2022/06/21 04:07:37;;;;;;;16.13;7.20;;;11.30;99.90;;;;;;5052954;28;20021;-66
2022/06/21 04:10:36;;;;;;;13.10;7.00;;;11.40;99.90;;;;;;5052880;28;20025;-66
2022/06/21 04:13:14;;;;;;;16.33;7.47;;;11.40;99.90;;;;;;5046233;28;20055;-66
2022/06/21 04:15:50;;;;;;;13.00;6.60;;;11.40;99.90;;;;;;5052844;28;20331;-63
2022/06/21 04:18:25;;;;;;;20.80;7.90;;;11.50;99.90;;;;;;5053241;28;20021;-62
2022/06/21 04:21:21;;;;;;;16.42;7.60;;;11.60;99.90;;;;;;5052475;28;20021;-63
2022/06/21 04:24:03;;;;;;;13.43;6.35;;;11.70;99.90;;;;;;5053063;28;20451;-62
2022/06/21 04:26:50;;;;;;;11.68;5.65;;;11.70;99.90;;;;;;5052642;28;20021;-65
2022/06/21 04:29:42;;;;;;;27.20;10.25;;;11.80;99.90;;;;;;5052773;28;20044;-63
2022/06/21 04:32:14;;;;;;;25.40;10.43;;;11.90;99.90;;;;;;5051362;28;20041;-63
2022/06/21 04:34:57;;;;;;;24.70;10.45;;;12.00;99.90;;;;;;5052900;28;20021;-66
2022/06/21 04:37:28;;;;;;;21.50;10.57;;;12.20;99.90;;;;;;5052434;28;20028;-63
2022/06/21 04:40:06;;;;;;;24.75;10.65;;;12.30;99.90;;;;;;5052494;28;20052;-63
2022/06/21 04:42:58;;;;;;;24.85;10.05;;;12.40;99.90;;;;;;5052986;28;20036;-63
2022/06/21 04:45:37;;;;;;;28.52;11.48;;;12.50;99.90;;;;;;5052858;28;20033;-63
2022/06/21 04:48:31;;;;;;;19.27;9.60;;;12.70;99.90;;;;;;5052651;28;20034;-62
2022/06/21 04:51:11;;;;;;;26.17;9.40;;;12.80;99.90;;;;;;5052556;28;20108;-63
2022/06/21 04:53:41;;;;;;;19.73;10.45;;;13.00;99.90;;;;;;5052738;28;20108;-63
2022/06/21 04:56:29;;;;;;;24.75;9.95;;;13.10;99.90;;;;;;5052506;28;20021;-62
2022/06/21 04:58:56;;;;;;;23.33;10.40;;;13.20;99.90;;;;;;5056757;28;20414;-63
2022/06/21 05:01:35;;;;;;;24.95;11.02;;;13.40;99.90;;;;;;5055149;28;20112;-62
2022/06/21 05:04:03;;;;;;;24.33;12.07;;;13.60;99.90;;;;;;5056768;28;20024;-64
2022/06/21 05:06:28;;;;;;;27.48;13.25;;;13.70;99.90;;;;;;5056462;28;20044;-63
2022/06/21 05:08:54;;;;;;;31.08;12.82;;;13.90;99.90;;;;;;5056478;28;20451;-62
2022/06/21 05:11:22;;;;;;;28.27;12.25;;;14.00;99.90;;;;;;5055291;28;20032;-63
2022/06/21 05:13:51;;;;;;;22.58;10.38;;;14.20;99.90;;;;;;5056692;28;20505;-62
2022/06/21 05:16:20;;;;;;;20.92;10.00;;;14.40;99.90;;;;;;5056641;28;20066;-62
2022/06/21 05:18:58;;;;;;;19.27;9.18;;;14.70;99.90;;;;;;5056142;28;20024;-62
2022/06/21 05:21:33;;;;;;;22.27;9.32;;;14.90;99.90;;;;;;5056619;28;20047;-62
2022/06/21 05:24:00;;;;;;;22.73;9.13;;;15.20;99.90;;;;;;5056501;28;20070;-63
2022/06/21 05:26:38;;;;;;;19.52;8.90;;;15.60;99.90;;;;;;5056710;28;20032;-63
2022/06/21 05:29:25;;;;;;;21.95;9.82;;;16.10;99.90;;;;;;5055992;28;20027;-63
2022/06/21 05:31:55;;;;;;;19.80;9.57;;;16.80;99.90;;;;;;5055917;28;20045;-64
2022/06/21 05:34:29;;;;;;;24.55;9.27;;;17.70;99.90;;;;;;5055912;28;20430;-62
2022/06/21 05:37:00;;;;;;;18.17;7.07;;;18.60;99.90;;;;;;5056267;28;20048;-62
2022/06/21 05:39:35;;;;;;;13.65;5.43;;;19.50;99.90;;;;;;5055763;28;20017;-63
2022/06/21 05:42:04;;;;;;;15.43;5.78;;;20.40;99.90;;;;;;5056062;28;20119;-63
2022/06/21 05:44:39;;;;;;;16.67;6.10;;;21.30;99.90;;;;;;5056351;28;20025;-63
2022/06/21 05:47:14;;;;;;;19.60;7.00;;;22.20;99.90;;;;;;5055905;28;20049;-63
2022/06/21 05:49:41;;;;;;;14.68;5.55;;;22.90;99.40;;;;;;5055856;28;20382;-63
2022/06/21 05:52:12;;;;;;;15.73;6.10;;;23.60;98.50;;;;;;5055953;28;20025;-62
2022/06/21 05:54:45;;;;;;;14.85;5.22;;;24.40;97.40;;;;;;5055515;28;20371;-63
2022/06/21 05:57:16;;;;;;;13.50;4.43;;;25.10;95.30;;;;;;5056091;28;20029;-63
2022/06/21 05:59:42;;;;;;;8.93;3.92;;;25.80;94.10;;;;;;5056095;28;20013;-63
2022/06/21 06:02:24;;;;;;;11.18;3.60;;;26.40;93.20;;;;;;5055971;28;20371;-63
2022/06/21 06:05:06;;;;;;;12.68;3.40;;;27.20;91.70;;;;;;5055263;28;20021;-64
2022/06/21 06:07:41;;;;;;;10.38;3.50;;;27.80;90.30;;;;;;5055671;28;20024;-63
2022/06/21 06:10:08;;;;;;;10.25;3.00;;;28.50;87.80;;;;;;5054410;28;20021;-63
2022/06/21 06:12:44;;;;;;;10.38;3.05;;;29.00;85.90;;;;;;5055527;28;20037;-63
2022/06/21 06:15:12;;;;;;;11.60;2.55;;;29.40;83.10;;;;;;5055561;28;20104;-64
2022/06/21 06:18:04;;;;;;;10.60;2.53;;;29.70;81.20;;;;;;5055411;28;20397;-64
2022/06/21 06:20:31;;;;;;;;;;;30.10;80.30;;;;;;5047423;28;20348;-64
2022/06/21 06:23:09;;;;;;;7.45;2.78;;;30.50;77.80;;;;;;5055134;28;20005;-64
2022/06/21 06:25:51;;;;;;;8.68;2.67;;;30.70;77.00;;;;;;5055447;28;20024;-64
2022/06/21 06:28:26;;;;;;;6.03;2.33;;;30.90;75.50;;;;;;5055223;28;20452;-64
2022/06/21 06:31:05;;;;;;;6.13;2.30;;;31.10;74.50;;;;;;5055035;28;20029;-66
2022/06/21 06:33:37;;;;;;;8.35;2.28;;;31.40;73.00;;;;;;5055181;28;20037;-65
2022/06/21 06:36:14;;;;;;;10.15;2.80;;;31.60;72.20;;;;;;5054990;28;20021;-63
2022/06/21 06:38:41;;;;;;;8.05;2.47;;;31.60;70.60;;;;;;5054622;28;20045;-63
2022/06/21 06:41:34;;;;;;;7.00;2.53;;;31.40;71.20;;;;;;5054960;28;20024;-65
2022/06/21 06:44:03;;;;;;;6.43;2.53;;;31.40;71.00;;;;;;5054639;28;20029;-64
2022/06/21 06:46:30;;;;;;;9.15;2.85;;;31.70;69.80;;;;;;5054568;28;20063;-64
2022/06/21 06:49:27;;;;;;;6.55;2.72;;;32.00;69.60;;;;;;5054697;28;20062;-65
2022/06/21 06:52:13;;;;;;;8.85;2.50;;;32.20;69.30;;;;;;5046330;28;20128;-65
2022/06/21 06:55:01;;;;;;;10.70;2.75;;;32.70;68.50;;;;;;5054774;28;20103;-64
2022/06/21 06:57:37;;;;;;;8.57;2.70;;;33.00;67.10;;;;;;5054959;28;20056;-66
2022/06/21 07:00:11;;;;;;;10.48;2.60;;;33.40;66.80;;;;;;5054837;28;20013;-63
2022/06/21 07:02:41;;;;;;;8.77;2.45;;;33.60;65.70;;;;;;5054048;28;20425;-64
2022/06/21 07:05:21;;;;;;;7.95;2.55;;;33.80;65.30;;;;;;5053609;28;20054;-64
2022/06/21 07:07:48;;;;;;;6.28;1.90;;;33.90;65.90;;;;;;5053392;28;20025;-64
2022/06/21 07:10:18;;;;;;;11.52;2.40;;;34.00;65.30;;;;;;5054234;28;20185;-63
2022/06/21 07:12:44;;;;;;;11.98;2.53;;;34.20;64.20;;;;;;5052466;28;20493;-63
2022/06/21 07:15:12;;;;;;;5.63;2.30;;;34.20;63.10;;;;;;5053840;28;20017;-63
2022/06/21 07:17:52;;;;;;;7.82;2.58;;;34.30;62.10;;;;;;5054217;28;20027;-63
2022/06/21 07:20:29;;;;;;;10.68;2.47;;;34.00;62.60;;;;;;5054065;28;20021;-63
2022/06/21 07:22:56;;;;;;;10.68;2.60;;;33.80;63.00;;;;;;5053905;28;20053;-64
2022/06/21 07:25:49;;;;;;;8.77;2.45;;;34.00;62.80;;;;;;5054198;28;20422;-63
2022/06/21 07:28:35;;;;;;;7.82;2.03;;;34.40;62.00;;;;;;5054160;28;20044;-63
2022/06/21 07:31:08;;;;;;;5.35;2.25;;;34.60;61.10;;;;;;5053831;28;20025;-62
2022/06/21 07:33:43;;;;;;;8.13;2.33;;;34.30;61.20;;;;;;5054142;28;20063;-65
2022/06/21 07:36:18;;;;;;;8.57;2.42;;;33.10;61.60;;;;;;5053976;28;20052;-63
2022/06/21 07:38:51;;;;;;;6.40;2.22;;;32.10;63.30;;;;;;5053807;28;20032;-64
2022/06/21 07:41:29;;;;;;;5.38;1.95;;;31.80;62.80;;;;;;5054099;28;20048;-64
2022/06/21 07:44:01;;;;;;;4.75;2.03;;;32.00;63.00;;;;;;5053857;28;20017;-64
2022/06/21 07:46:36;;;;;;;7.43;2.17;;;32.20;62.90;;;;;;5053809;28;20025;-63
2022/06/21 07:49:07;;;;;;;6.25;2.13;;;32.00;63.40;;;;;;5053939;28;20035;-64
2022/06/21 07:51:43;;;;;;;6.93;2.38;;;31.60;63.40;;;;;;5053742;28;20362;-64
2022/06/21 07:54:11;;;;;;;4.78;1.77;;;31.10;64.40;;;;;;5053955;28;20065;-64
2022/06/21 07:57:00;;;;;;;8.63;2.03;;;31.00;65.20;;;;;;5052211;28;20473;-63
2022/06/21 07:59:43;;;;;;;6.43;2.05;;;30.60;63.60;;;;;;5053631;28;20025;-63
2022/06/21 08:08:31;;;;;;;7.63;2.22;;;29.30;65.40;;;;;;5052824;28;20374;-64
2022/06/21 08:10:59;;;;;;;8.18;1.83;;;28.20;67.40;;;;;;5053168;28;20021;-63
2022/06/21 08:13:25;;;;;;;4.85;2.15;;;27.80;69.60;;;;;;5053047;28;20122;-64
2022/06/21 08:15:58;;;;;;;6.07;2.30;;;27.90;69.10;;;;;;5052607;28;20032;-64
2022/06/21 08:18:37;;;;;;;8.38;2.05;;;28.40;69.20;;;;;;5052758;28;20032;-64
2022/06/21 08:21:20;;;;;;;12.18;2.42;;;28.80;67.20;;;;;;5051660;28;20051;-64
2022/06/21 08:24:01;;;;;;;6.88;1.70;;;28.80;67.60;;;;;;5052511;28;20036;-64
2022/06/21 08:26:34;;;;;;;5.35;1.90;;;28.60;66.80;;;;;;5052743;28;20021;-64
2022/06/21 08:29:32;;;;;;;8.50;1.85;;;28.50;66.80;;;;;;5053017;28;20032;-63
2022/06/21 08:32:07;;;;;;;4.90;1.80;;;29.10;65.50;;;;;;5052345;28;20037;-65
2022/06/21 08:34:48;;;;;;;6.05;2.00;;;30.30;63.90;;;;;;5052723;28;20470;-68
2022/06/21 08:37:38;;;;;;;6.53;1.90;;;31.40;63.10;;;;;;5052829;28;20021;-64
2022/06/21 08:40:22;;;;;;;4.57;1.90;;;32.50;62.80;;;;;;5053255;28;20040;-64
2022/06/21 08:43:06;;;;;;;6.40;1.90;;;33.80;61.10;;;;;;5052914;28;20036;-64
2022/06/21 08:46:08;;;;;;;3.13;1.77;;;34.70;59.80;;;;;;5052666;28;20051;-63
2022/06/21 08:49:03;;;;;;;6.25;2.17;;;35.70;59.10;;;;;;5053032;28;20503;-64
2022/06/21 08:51:42;;;;;;;7.90;1.63;;;36.80;56.80;;;;;;5053085;28;20017;-63
2022/06/21 08:54:08;;;;;;;4.22;1.90;;;37.60;56.00;;;;;;5052892;28;20044;-64
2022/06/21 08:56:37;;;;;;;6.10;1.75;;;38.00;54.20;;;;;;5053024;28;20104;-64
2022/06/21 08:59:17;;;;;;;6.18;2.08;;;38.20;53.10;;;;;;5051523;28;20021;-64
2022/06/21 09:02:14;;;;;;;2.97;1.52;;;38.40;53.20;;;;;;5053249;28;20021;-66
2022/06/21 09:05:33;;;;;;;4.55;1.80;;;38.60;52.50;;;;;;5052929;28;20032;-67
2022/06/21 09:08:17;;;;;;;4.97;1.95;;;38.90;51.50;;;;;;5049260;28;20033;-65
2022/06/21 09:11:11;;;;;;;6.55;1.73;;;39.20;50.50;;;;;;5052418;28;20092;-63
2022/06/21 09:13:37;;;;;;;3.38;1.67;;;39.50;50.30;;;;;;5052385;28;20032;-64
2022/06/21 09:16:27;;;;;;;7.60;1.75;;;40.00;49.30;;;;;;5052442;28;20024;-64
2022/06/21 09:19:30;;;;;;;5.50;1.55;;;40.40;49.00;;;;;;5052528;28;20028;-67
2022/06/21 09:22:38;;;;;;;5.93;1.90;;;40.70;47.30;;;;;;5052567;28;20037;-63
2022/06/21 09:25:50;;;;;;;4.35;1.98;;;40.90;47.70;;;;;;5052600;28;20087;-66
2022/06/21 09:28:32;;;;;;;6.32;1.85;;;41.60;47.00;;;;;;5012450;28;20075;-68
2022/06/21 09:31:05;;;;;;;6.93;1.80;;;41.90;45.60;;;;;;5060474;28;20021;-63
2022/06/21 09:33:46;;;;;;;3.53;2.00;;;42.10;45.50;;;;;;5052223;28;20064;-64
2022/06/21 09:36:27;;;;;;;4.38;1.58;;;41.90;45.00;;;;;;5072624;28;20021;-63
2022/06/21 09:38:53;;;;;;;4.53;1.63;;;41.90;45.10;;;;;;5072545;28;20032;-65
2022/06/21 09:41:23;;;;;;;2.85;1.50;;;41.70;44.20;;;;;;5072507;28;20108;-64
2022/06/21 09:44:09;;;;;;;6.47;2.38;;;41.50;44.40;;;;;;5060419;28;20021;-63
2022/06/21 09:46:53;;;;;;;6.15;2.50;;;41.20;44.60;;;;;;5056313;28;20021;-63
2022/06/21 09:49:45;;;;;;;7.53;1.85;;;40.80;44.50;;;;;;5056170;28;20036;-65
2022/06/21 09:52:48;;;;;;;4.75;1.92;;;40.80;45.20;;;;;;5055791;28;20063;-66
2022/06/21 09:55:31;;;;;;;4.80;2.10;;;41.10;43.90;;;;;;5056049;28;20125;-67
2022/06/21 09:58:08;;;;;;;5.93;2.00;;;41.10;43.90;;;;;;5055748;28;20471;-64
2022/06/21 10:00:44;;;;;;;5.70;1.70;;;41.30;44.00;;;;;;5065123;28;20083;-63
2022/06/21 10:03:15;;;;;;;6.32;1.83;;;41.40;43.90;;;;;;5075687;28;20044;-65
2022/06/21 10:05:56;;;;;;;6.22;1.80;;;41.40;43.80;;;;;;5075014;28;20021;-64
2022/06/21 10:08:45;;;;;;;6.80;2.08;;;41.50;44.20;;;;;;5075761;28;20067;-64
2022/06/21 10:11:36;;;;;;;7.97;2.58;;;41.30;46.60;;;;;;5075785;28;20020;-64
2022/06/21 10:14:26;;;;;;;5.60;2.22;;;41.00;46.70;;;;;;5075585;28;20052;-67
2022/06/21 10:17:11;;;;;;;7.80;3.10;;;40.30;47.40;;;;;;5075796;28;20092;-65
2022/06/21 10:20:10;;;;;;;8.40;2.67;;;39.40;48.20;;;;;;5075378;28;20495;-65
2022/06/21 10:22:57;;;;;;;10.48;2.33;;;38.50;48.90;;;;;;5075534;28;20033;-65
2022/06/21 10:25:58;;;;;;;6.60;2.30;;;37.30;50.00;;;;;;5075212;28;20021;-65
2022/06/21 10:28:46;;;;;;;11.03;2.87;;;36.70;50.30;;;;;;5075441;28;20077;-66
2022/06/21 10:31:23;;;;;;;6.70;2.38;;;36.70;50.50;;;;;;5075124;28;20281;-65
2022/06/21 10:34:13;;;;;;;8.77;2.22;;;36.70;50.70;;;;;;5073023;28;20024;-65
2022/06/21 10:36:50;;;;;;;8.50;2.30;;;36.80;50.90;;;;;;5055315;28;20024;-65
2022/06/21 10:39:24;;;;;;;9.25;2.85;;;36.60;51.20;;;;;;5053815;28;20021;-62
2022/06/21 10:45:28;;;;;;;8.18;2.50;;;36.20;51.40;;;;;;5054672;28;20509;-65
2022/06/21 10:48:09;;;;;;;10.18;2.97;;;36.10;51.70;;;;;;5055038;28;20017;-67
2022/06/21 10:50:52;;;;;;;10.15;2.83;;;35.70;52.00;;;;;;5055053;28;20032;-64
2022/06/21 10:53:45;;;;;;;8.77;2.75;;;35.20;52.60;;;;;;5054738;28;20101;-64
2022/06/21 11:02:59;;;;;;;6.80;2.65;;;34.00;54.00;;;;;;5054514;28;20382;-67
2022/06/21 11:05:50;;;;;;;7.53;2.75;;;33.20;54.80;;;;;;5054382;28;20021;-64
2022/06/21 11:08:18;;;;;;;8.47;2.80;;;32.60;55.30;;;;;;5054419;28;20088;-65
2022/06/21 11:10:51;;;;;;;8.85;2.50;;;32.20;56.10;;;;;;5054454;28;20520;-64
2022/06/21 11:13:20;;;;;;;7.68;2.60;;;31.70;56.60;;;;;;5052935;28;20029;-64
2022/06/21 11:16:17;;;;;;;8.70;3.00;;;31.40;57.10;;;;;;5054906;28;20021;-68
2022/06/21 11:19:06;;;;;;;10.43;2.53;;;31.10;57.60;;;;;;5054747;28;20099;-65
2022/06/21 11:22:01;;;;;;;10.50;2.58;;;30.80;58.20;;;;;;5054235;28;20443;-64
2022/06/21 11:24:57;;;;;;;10.40;2.80;;;30.60;58.60;;;;;;5054336;28;20028;-65
2022/06/21 11:27:28;;;;;;;4.95;2.40;;;30.60;58.60;;;;;;5054498;28;20021;-64
2022/06/21 11:30:04;;;;;;;7.88;2.40;;;30.80;58.30;;;;;;5053709;28;20052;-64
2022/06/21 11:33:04;;;;;;;14.60;3.40;;;31.00;58.10;;;;;;5053975;28;20131;-68
2022/06/21 11:35:44;;;;;;;10.48;2.95;;;31.20;57.90;;;;;;5054392;28;20052;-64
2022/06/21 11:38:38;;;;;;;10.13;3.60;;;31.50;57.50;;;;;;5053860;28;20027;-65
2022/06/21 11:44:17;;;;;;;9.75;2.58;;;32.70;56.50;;;;;;5053694;28;20511;-65
2022/06/21 11:47:01;;;;;;;8.68;2.60;;;34.00;55.00;;;;;;5053297;28;20025;-66
2022/06/21 11:49:29;;;;;;;10.63;3.30;;;35.10;53.50;;;;;;5053820;28;20017;-65
2022/06/21 11:52:08;;;;;;;8.02;2.88;;;36.20;52.60;;;;;;5053770;28;20065;-65
2022/06/21 11:55:04;;;;;;;13.52;3.38;;;36.80;51.90;;;;;;5054072;28;20028;-66
2022/06/21 11:57:48;;;;;;;8.63;2.90;;;36.90;52.00;;;;;;5053772;28;20017;-67
2022/06/21 12:00:19;;;;;;;10.80;2.85;;;37.10;51.50;;;;;;5053514;28;20375;-65
2022/06/21 12:02:53;;;;;;;10.43;2.87;;;37.10;51.50;;;;;;5052513;28;20382;-67
2022/06/21 12:05:32;;;;;;;11.10;3.17;;;37.00;51.50;;;;;;5053029;28;20477;-65
2022/06/21 12:08:08;;;;;;;10.30;2.72;;;36.90;51.60;;;;;;5053028;28;20030;-67
2022/06/21 12:11:12;;;;;;;9.40;2.70;;;36.90;51.60;;;;;;5054099;28;20021;-66
2022/06/21 12:14:02;;;;;;;6.65;2.75;;;37.10;51.50;;;;;;5053554;28;20017;-65
2022/06/21 12:16:40;;;;;;;9.98;2.97;;;37.60;50.40;;;;;;5053577;28;20108;-65
2022/06/21 12:19:08;;;;;;;8.88;3.22;;;38.00;50.40;;;;;;5052164;28;20047;-65
2022/06/21 12:21:40;;;;;;;10.95;3.13;;;38.50;49.60;;;;;;5052601;28;20028;-65
2022/06/21 12:24:14;;;;;;;9.88;3.35;;;38.80;49.70;;;;;;5052447;28;20033;-65
2022/06/21 12:26:40;;;;;;;9.07;3.20;;;39.00;49.50;;;;;;5052662;28;20021;-66
2022/06/21 12:29:12;;;;;;;10.13;3.00;;;38.80;49.40;;;;;;5052236;28;20100;-65
2022/06/21 12:31:44;;;;;;;10.57;3.85;;;38.40;49.50;;;;;;5052343;28;20037;-67
2022/06/21 12:34:13;;;;;;;10.35;3.75;;;38.10;49.60;;;;;;5049951;28;20045;-64
2022/06/21 12:36:53;;;;;;;12.52;3.40;;;37.60;49.90;;;;;;5052283;28;20032;-68
2022/06/21 12:39:44;;;;;;;9.82;4.35;;;36.60;50.40;;;;;;5051059;28;20017;-66
2022/06/21 12:42:33;;;;;;;9.93;4.40;;;35.30;51.40;;;;;;5050063;28;20025;-65
2022/06/21 12:45:10;;;;;;;12.23;4.53;;;34.30;52.20;;;;;;5050859;28;20028;-66
2022/06/21 12:47:50;;;;;;;12.00;3.92;;;33.40;53.30;;;;;;5050848;28;20377;-68
2022/06/21 12:50:34;;;;;;;12.43;4.13;;;32.50;54.50;;;;;;5051033;28;20055;-65
2022/06/21 12:53:12;;;;;;;8.43;3.90;;;31.90;55.20;;;;;;5050975;28;20017;-65
2022/06/21 12:56:12;;;;;;;13.27;3.90;;;31.40;55.70;;;;;;5050487;28;20047;-67
2022/06/21 12:59:15;;;;;;;10.10;3.40;;;31.00;56.60;;;;;;5050780;28;20024;-66
2022/06/21 13:02:05;;;;;;;11.43;3.88;;;30.80;57.10;;;;;;5051100;28;20025;-64
2022/06/21 13:05:00;;;;;;;13.98;4.50;;;30.70;57.10;;;;;;5049813;28;20051;-64
2022/06/21 13:08:01;;;;;;;15.07;4.65;;;30.50;57.00;;;;;;5050519;28;20059;-67
2022/06/21 13:10:38;;;;;;;11.20;4.60;;;30.40;57.10;;;;;;5051545;28;20032;-64
2022/06/21 13:13:28;;;;;;;10.90;4.20;;;30.30;57.70;;;;;;5050734;28;20166;-64
2022/06/21 13:16:10;;;;;;;9.93;3.70;;;30.30;58.60;;;;;;5050054;28;20043;-67
2022/06/21 13:19:13;;;;;;;8.93;4.05;;;30.30;58.70;;;;;;5052180;28;20100;-65
2022/06/21 13:22:00;;;;;;;14.60;4.55;;;30.20;58.60;;;;;;5054725;28;20025;-62
2022/06/21 13:25:13;;;;;;;11.45;4.22;;;30.00;58.90;;;;;;5055308;28;20032;-65
2022/06/21 13:28:05;;;;;;;9.27;3.75;;;29.80;59.40;;;;;;5054742;28;20025;-66
2022/06/21 13:30:48;;;;;;;17.45;4.05;;;29.60;59.70;;;;;;5053474;28;20043;-65
2022/06/21 13:33:55;;;;;;;10.77;4.05;;;29.30;60.30;;;;;;5053542;28;20040;-67
2022/06/21 13:36:29;;;;;;;14.60;5.25;;;29.10;60.80;;;;;;5054457;28;20447;-68
2022/06/21 13:39:31;;;;;;;10.15;3.20;;;28.80;61.50;;;;;;5053974;28;20043;-63
2022/06/21 13:45:11;;;;;;;12.35;3.63;;;28.30;62.20;;;;;;5055113;28;19939;-63
2022/06/21 13:47:47;;;;;;;10.70;4.15;;;28.10;62.50;;;;;;5012720;28;20033;-64
2022/06/21 13:50:16;;;;;;;9.63;4.85;;;28.10;62.40;;;;;;5055609;28;20037;-66
2022/06/21 13:53:13;;;;;;;16.55;5.28;;;28.10;62.70;;;;;;5055219;28;20092;-67
2022/06/21 13:56:01;;;;;;;11.02;4.40;;;28.30;62.50;;;;;;5055758;28;20017;-64
2022/06/21 13:58:40;;;;;;;9.73;4.45;;;28.50;62.50;;;;;;5055828;28;20025;-67
2022/06/21 14:01:12;;;;;;;10.18;4.65;;;28.60;62.10;;;;;;5056081;28;20131;-66
2022/06/21 14:04:01;;;;;;;9.35;4.35;;;28.60;62.30;;;;;;5055683;28;20118;-65